createdAt,value
2022-10-08T00:01:19.119Z,96856.50
2022-10-08T00:03:50.608Z,96839.44
2022-10-08T00:06:28.126Z,96849.63
2022-10-08T00:09:05.751Z,96853.25
2022-10-08T00:11:36.083Z,96854.41
2022-10-08T00:14:03.624Z,96849.97
2022-10-08T00:16:40.656Z,96851.59
2022-10-08T00:19:14.338Z,96842.91
2022-10-08T00:21:44.374Z,96850.84
2022-10-08T00:24:15.399Z,96843.59
2022-10-08T00:26:44.069Z,96841.72
2022-10-08T00:29:15.241Z,96841.91
2022-10-08T00:31:45.313Z,96843.97
2022-10-08T00:34:16.316Z,96841.47
2022-10-08T00:36:43.469Z,96839.38
2022-10-08T00:39:17.834Z,96837.22
2022-10-08T00:41:52.146Z,96835.56
2022-10-08T00:44:46.863Z,96838.56
2022-10-08T00:47:33.089Z,96833.13
2022-10-08T00:50:16.986Z,96829.44
2022-10-08T00:52:55.335Z,96833.69
2022-10-08T00:55:27.943Z,96830.44
2022-10-08T00:58:01.952Z,96823.94
2022-10-08T01:00:31.001Z,96820.66
2022-10-08T01:02:57.845Z,96829.63
2022-10-08T01:05:58.749Z,96815.41
2022-10-08T01:08:35.740Z,96819.66
2022-10-08T01:11:37.310Z,96817.03
2022-10-08T01:14:35.960Z,96809.50
2022-10-08T01:17:12.510Z,96816.25
2022-10-08T01:19:53.693Z,96810.00
2022-10-08T01:22:51.490Z,96812.19
2022-10-08T01:25:36.114Z,96807.53
2022-10-08T01:28:14.939Z,96803.84
2022-10-08T01:31:09.509Z,96812.00
2022-10-08T01:33:50.804Z,96805.19
2022-10-08T01:36:20.737Z,96806.38
2022-10-08T01:39:01.289Z,96803.50
2022-10-08T01:41:31.081Z,96799.47
2022-10-08T01:44:13.769Z,96801.13
2022-10-08T01:46:44.207Z,96806.72
2022-10-08T01:49:17.418Z,96787.34
2022-10-08T01:52:04.203Z,96788.47
2022-10-08T01:54:33.156Z,96792.28
2022-10-08T01:57:03.059Z,96793.72
2022-10-08T01:59:45.927Z,96800.22
2022-10-08T02:02:25.299Z,96790.53
2022-10-08T02:04:55.533Z,96803.50
2022-10-08T02:07:30.198Z,96792.97
2022-10-08T02:10:17.023Z,96796.59
2022-10-08T02:12:44.960Z,96787.72
2022-10-08T02:15:42.287Z,96798.59
2022-10-08T02:18:20.839Z,96791.91
2022-10-08T02:21:09.018Z,96779.19
2022-10-08T02:23:53.583Z,96776.75
2022-10-08T02:26:29.730Z,96773.59
2022-10-08T02:29:02.432Z,96767.13
2022-10-08T02:31:43.566Z,96772.38
2022-10-08T02:34:37.827Z,96773.59
2022-10-08T02:37:14.264Z,96775.56
2022-10-08T02:39:49.300Z,96779.19
2022-10-08T02:42:22.374Z,96780.84
2022-10-08T02:45:31.648Z,96779.19
2022-10-08T02:48:06.778Z,96772.31
2022-10-08T02:50:39.682Z,96754.91
2022-10-08T02:53:07.020Z,96769.44
2022-10-08T02:55:48.953Z,96777.88
2022-10-08T02:58:16.027Z,96771.41
2022-10-08T03:01:03.790Z,96783.13
2022-10-08T03:03:36.010Z,96782.31
2022-10-08T03:06:07.784Z,96770.81
2022-10-08T03:08:41.070Z,96779.06
2022-10-08T03:11:08.333Z,96775.34
2022-10-08T03:13:42.416Z,96781.44
2022-10-08T03:16:15.520Z,96785.13
2022-10-08T03:18:43.352Z,96787.69
2022-10-08T03:21:15.713Z,96782.88
2022-10-08T03:23:42.528Z,96779.63
2022-10-08T03:26:09.309Z,96777.38
2022-10-08T03:28:36.259Z,96773.94
2022-10-08T03:31:06.863Z,96776.72
2022-10-08T03:33:34.080Z,96771.47
2022-10-08T03:36:00.878Z,96775.09
2022-10-08T03:38:28.014Z,96771.84
2022-10-08T03:40:57.590Z,96787.97
2022-10-08T03:43:25.095Z,96779.47
2022-10-08T03:45:54.225Z,96779.47
2022-10-08T03:48:22.726Z,96780.09
2022-10-08T03:51:01.730Z,96774.47
2022-10-08T03:53:32.346Z,96776.72
2022-10-08T03:56:04.672Z,96784.88
2022-10-08T03:58:31.611Z,96789.13
2022-10-08T04:01:01.032Z,96789.78
2022-10-08T04:03:29.158Z,96786.75
2022-10-08T04:05:56.204Z,96781.50
2022-10-08T04:08:23.404Z,96773.28
2022-10-08T04:10:50.214Z,96782.88
2022-10-08T04:13:17.658Z,96776.44
2022-10-08T04:15:47.261Z,96775.09
2022-10-08T04:18:14.881Z,96773.72
2022-10-08T04:20:42.879Z,96769.19
2022-10-08T04:23:10.661Z,96776.75
2022-10-08T04:25:38.088Z,96780.28
2022-10-08T04:28:06.192Z,96772.56
2022-10-08T04:30:33.228Z,96783.97
2022-10-08T04:33:00.000Z,96789.78
2022-10-08T04:35:26.844Z,96788.31
2022-10-08T04:37:53.600Z,96792.41
2022-10-08T04:40:20.390Z,96790.59
2022-10-08T04:42:52.012Z,96798.25
2022-10-08T04:45:18.895Z,96787.59
2022-10-08T04:47:45.841Z,96789.06
2022-10-08T04:50:12.625Z,96796.31
2022-10-08T04:52:39.421Z,96801.22
2022-10-08T04:55:07.162Z,96798.03
2022-10-08T04:57:33.934Z,96794.16
2022-10-08T05:00:17.698Z,96805.66
2022-10-08T05:02:46.134Z,96790.31
2022-10-08T05:05:13.468Z,96789.31
2022-10-08T05:07:40.247Z,96796.47
2022-10-08T05:10:07.727Z,96798.44
2022-10-08T05:12:34.489Z,96796.09
2022-10-08T05:15:01.337Z,96802.59
2022-10-08T05:17:28.140Z,96807.28
2022-10-08T05:19:54.930Z,96802.22
2022-10-08T05:22:21.775Z,96803.78
2022-10-08T05:24:48.571Z,96813.47
2022-10-08T05:27:15.341Z,96800.53
2022-10-08T05:29:42.118Z,96806.06
2022-10-08T05:32:08.903Z,96806.88
2022-10-08T05:34:35.700Z,96810.75
2022-10-08T05:37:02.533Z,96809.38
2022-10-08T05:39:29.298Z,96804.38
2022-10-08T05:41:56.121Z,96806.38
2022-10-08T05:44:23.023Z,96806.63
2022-10-08T05:46:49.886Z,96815.41
2022-10-08T05:49:20.854Z,96817.03
2022-10-08T05:51:48.937Z,96818.03
2022-10-08T05:54:17.437Z,96827.91
2022-10-08T05:56:44.628Z,96823.53
2022-10-08T05:59:22.887Z,96826.44
2022-10-08T06:01:50.694Z,96829.75
2022-10-08T06:04:18.605Z,96824.56
2022-10-08T06:06:45.697Z,96834.94
2022-10-08T06:09:18.782Z,96829.19
2022-10-08T06:11:46.372Z,96829.06
2022-10-08T06:14:16.770Z,96826.88
2022-10-08T06:16:43.923Z,96830.25
2022-10-08T06:19:11.140Z,96838.53
2022-10-08T06:21:38.265Z,96841.09
2022-10-08T06:24:08.926Z,96842.03
2022-10-08T06:26:39.661Z,96830.94
2022-10-08T06:29:12.362Z,96843.59
2022-10-08T06:31:39.248Z,96844.81
2022-10-08T06:34:06.356Z,96845.47
2022-10-08T06:36:36.737Z,96850.38
2022-10-08T06:39:11.343Z,96847.38
2022-10-08T06:41:38.449Z,96848.06
2022-10-08T06:44:08.205Z,96858.44
2022-10-08T06:46:36.051Z,96852.16
2022-10-08T06:49:03.699Z,96851.72
2022-10-08T06:51:30.759Z,96860.22
2022-10-08T06:54:05.789Z,96863.44
2022-10-08T06:56:35.498Z,96862.13
2022-10-08T06:59:02.453Z,96857.94
2022-10-08T07:01:33.172Z,96871.06
2022-10-08T07:04:01.486Z,96875.31
2022-10-08T07:06:29.124Z,96869.59
2022-10-08T07:08:59.358Z,96874.56
2022-10-08T07:11:27.411Z,96868.47
2022-10-08T07:13:55.640Z,96880.66
2022-10-08T07:16:25.204Z,96878.16
2022-10-08T07:18:56.022Z,96881.25
2022-10-08T07:21:23.402Z,96880.81
2022-10-08T07:23:51.390Z,96897.69
2022-10-08T07:26:22.237Z,96894.78
2022-10-08T07:28:59.964Z,96893.59
2022-10-08T07:31:31.177Z,96899.50
2022-10-08T07:34:00.031Z,96901.31
2022-10-08T07:36:28.680Z,96898.06
2022-10-08T07:39:01.963Z,96900.28
2022-10-08T07:41:30.226Z,96914.34
2022-10-08T07:43:59.737Z,96919.00
2022-10-08T07:46:35.566Z,96916.06
2022-10-08T07:49:04.643Z,96914.22
2022-10-08T07:51:34.205Z,96918.94
2022-10-08T07:54:03.110Z,96909.84
2022-10-08T07:56:31.219Z,96914.97
2022-10-08T07:58:59.850Z,96918.50
2022-10-08T08:01:29.342Z,96919.56
2022-10-08T08:04:04.762Z,96922.78
2022-10-08T08:06:33.894Z,96920.88
2022-10-08T08:09:01.420Z,96917.91
2022-10-08T08:11:28.418Z,96920.50
2022-10-08T08:13:55.239Z,96920.81
2022-10-08T08:16:28.114Z,96922.44
2022-10-08T08:19:00.692Z,96920.75
2022-10-08T08:21:36.169Z,96921.44
2022-10-08T08:24:12.109Z,96917.50
2022-10-08T08:26:41.430Z,96917.38
2022-10-08T08:29:14.741Z,96916.28
2022-10-08T08:31:44.679Z,96919.59
2022-10-08T08:34:16.569Z,96915.41
2022-10-08T08:36:46.689Z,96920.63
2022-10-08T08:39:26.245Z,96916.94
2022-10-08T08:42:04.986Z,96920.31
2022-10-08T08:44:38.070Z,96919.03
2022-10-08T08:47:15.701Z,96914.91
2022-10-08T08:49:52.329Z,96917.38
2022-10-08T08:52:25.565Z,96913.94
2022-10-08T08:54:54.617Z,96919.25
2022-10-08T08:57:40.749Z,96913.13
2022-10-08T09:00:24.011Z,96924.47
2022-10-08T09:03:05.781Z,96924.59
2022-10-08T09:05:39.723Z,96925.72
2022-10-08T09:08:32.199Z,96922.47
2022-10-08T09:11:04.909Z,96921.25
2022-10-08T09:13:40.322Z,96928.00
2022-10-08T09:16:11.304Z,96921.50
2022-10-08T09:18:38.301Z,96925.34
2022-10-08T09:21:05.602Z,96932.31
2022-10-08T09:23:32.386Z,96926.34
2022-10-08T09:26:04.271Z,96929.34
2022-10-08T09:28:47.369Z,96933.63
2022-10-08T09:31:40.345Z,96934.66
2022-10-08T09:34:13.288Z,96934.22
2022-10-08T09:37:04.941Z,96937.44
2022-10-08T09:39:37.309Z,96935.13
2022-10-08T09:42:19.779Z,96938.03
2022-10-08T09:44:50.456Z,96937.22
2022-10-08T09:47:23.124Z,96939.28
2022-10-08T09:50:19.239Z,96946.03
2022-10-08T09:52:51.084Z,96943.25
2022-10-08T09:55:27.029Z,96934.78
2022-10-08T09:58:00.262Z,96945.53
2022-10-08T10:00:35.371Z,96941.94
2022-10-08T10:03:05.589Z,96942.75
2022-10-08T10:05:35.334Z,96932.22
2022-10-08T10:08:02.812Z,96933.47
2022-10-08T10:10:40.857Z,96929.06
2022-10-08T10:13:20.396Z,96933.00
2022-10-08T10:16:04.890Z,96927.97
2022-10-08T10:18:48.251Z,96928.53
2022-10-08T10:21:24.104Z,96928.06
2022-10-08T10:24:19.505Z,96938.72
2022-10-08T10:26:48.678Z,96926.44
2022-10-08T10:29:22.898Z,96923.69
2022-10-08T10:32:00.404Z,96924.63
2022-10-08T10:34:28.937Z,96929.47
2022-10-08T10:37:01.893Z,96932.75
2022-10-08T10:39:46.712Z,96930.91
2022-10-08T10:42:33.664Z,96926.03
2022-10-08T10:45:28.165Z,96929.28
2022-10-08T10:47:55.008Z,96917.53
2022-10-08T10:50:53.362Z,96928.38
2022-10-08T10:53:40.049Z,96911.50
2022-10-08T10:56:17.498Z,96919.69
2022-10-08T10:59:22.453Z,96922.25
2022-10-08T11:02:00.976Z,96918.06
2022-10-08T11:05:06.317Z,96917.69
2022-10-08T11:07:54.602Z,96922.19
2022-10-08T11:10:51.960Z,96926.53
2022-10-08T11:13:41.045Z,96910.44
2022-10-08T11:16:48.442Z,96916.13
2022-10-08T11:19:44.795Z,96910.91
2022-10-08T11:22:40.496Z,96912.63
2022-10-08T11:25:55.770Z,96911.97
2022-10-08T11:28:44.443Z,96915.53
2022-10-08T11:31:34.225Z,96909.75
2022-10-08T11:34:03.576Z,96912.16
2022-10-08T11:37:17.290Z,96909.00
2022-10-08T11:40:19.570Z,96906.69
2022-10-08T11:43:09.700Z,96899.13
2022-10-08T11:45:41.642Z,96904.78
2022-10-08T11:48:35.857Z,96905.66
2022-10-08T11:51:30.940Z,96902.22
2022-10-08T11:54:34.856Z,96902.31
2022-10-08T11:57:49.304Z,96895.13
2022-10-08T12:00:53.261Z,96893.66
2022-10-08T12:03:27.510Z,96878.84
2022-10-08T12:06:36.586Z,96885.34
2022-10-08T12:09:07.500Z,96877.88
2022-10-08T12:11:40.049Z,96877.94
2022-10-08T12:14:13.181Z,96880.38
2022-10-08T12:16:49.243Z,96881.53
2022-10-08T12:19:34.750Z,96880.72
2022-10-08T12:22:16.643Z,96883.84
2022-10-08T12:24:50.199Z,96880.63
2022-10-08T12:27:17.456Z,96870.72
2022-10-08T12:30:05.633Z,96877.44
2022-10-08T12:32:54.829Z,96870.13
2022-10-08T12:35:22.898Z,96877.16
2022-10-08T12:38:30.541Z,96871.44
2022-10-08T12:41:15.364Z,96873.00
2022-10-08T12:44:08.367Z,96878.81
2022-10-08T12:46:59.766Z,96873.25
2022-10-08T12:49:33.774Z,96872.59
2022-10-08T12:52:12.053Z,96884.31
2022-10-08T12:54:46.676Z,96884.47
2022-10-08T12:57:38.951Z,96888.84
2022-10-08T13:00:22.604Z,96883.13
2022-10-08T13:03:07.400Z,96885.88
2022-10-08T13:05:40.289Z,96890.06
2022-10-08T13:08:34.658Z,96895.59
2022-10-08T13:11:05.596Z,96890.75
2022-10-08T13:13:38.506Z,96896.16
2022-10-08T13:16:14.785Z,96898.97
2022-10-08T13:18:46.752Z,96891.66
2022-10-08T13:21:31.880Z,96892.72
2022-10-08T13:24:00.468Z,96892.06
2022-10-08T13:26:49.676Z,96891.34
2022-10-08T13:29:22.602Z,96892.19
2022-10-08T13:32:15.173Z,96890.31
2022-10-08T13:34:54.114Z,96889.88
2022-10-08T13:37:36.378Z,96889.53
2022-10-08T13:40:12.248Z,96889.53
2022-10-08T13:42:45.514Z,96884.91
2022-10-08T13:45:22.045Z,96887.00
2022-10-08T13:47:50.297Z,96882.38
2022-10-08T13:50:18.485Z,96884.69
2022-10-08T13:52:56.152Z,96889.53
2022-10-08T13:55:32.766Z,96895.78
2022-10-08T13:58:02.231Z,96903.06
2022-10-08T14:00:31.573Z,96895.09
2022-10-08T14:02:58.720Z,96893.34
2022-10-08T14:05:28.837Z,96888.81
2022-10-08T14:08:01.088Z,96892.97
2022-10-08T14:10:28.278Z,96897.38
2022-10-08T14:12:55.048Z,96895.75
2022-10-08T14:15:22.115Z,96896.22
2022-10-08T14:17:50.614Z,96885.94
2022-10-08T14:20:17.596Z,96892.19
2022-10-08T14:22:44.529Z,96887.44
2022-10-08T14:25:25.759Z,96888.50
2022-10-08T14:27:52.579Z,96893.94
2022-10-08T14:30:19.789Z,96900.63
2022-10-08T14:32:46.899Z,96899.38
2022-10-08T14:35:14.441Z,96911.16
2022-10-08T14:37:41.298Z,96903.59
2022-10-08T14:40:15.285Z,96908.59
2022-10-08T14:42:42.074Z,96905.34
2022-10-08T14:45:09.333Z,96908.47
2022-10-08T14:47:36.127Z,96903.16
2022-10-08T14:50:03.537Z,96906.25
2022-10-08T14:52:30.385Z,96901.41
2022-10-08T14:54:57.137Z,96901.97
2022-10-08T14:57:24.011Z,96900.81
2022-10-08T14:59:51.013Z,96906.25
2022-10-08T15:02:17.853Z,96900.00
2022-10-08T15:04:44.743Z,96890.75
2022-10-08T15:07:11.558Z,96897.00
2022-10-08T15:09:40.459Z,96903.44
2022-10-08T15:12:08.083Z,96913.81
2022-10-08T15:14:38.210Z,96917.97
2022-10-08T15:17:05.385Z,96913.47
2022-10-08T15:19:32.174Z,96918.06
2022-10-08T15:21:58.960Z,96917.47
2022-10-08T15:24:25.853Z,96918.97
2022-10-08T15:26:52.617Z,96913.44
2022-10-08T15:29:19.524Z,96922.66
2022-10-08T15:31:46.441Z,96920.81
2022-10-08T15:34:17.653Z,96919.88
2022-10-08T15:36:44.821Z,96927.13
2022-10-08T15:39:18.488Z,96934.06
2022-10-08T15:41:48.644Z,96942.31
2022-10-08T15:44:29.950Z,96924.28
2022-10-08T15:47:07.592Z,96931.84
2022-10-08T15:49:45.769Z,96930.66
2022-10-08T15:52:19.477Z,96934.41
2022-10-08T15:54:46.846Z,96943.06
2022-10-08T15:57:17.247Z,96944.09
2022-10-08T15:59:44.274Z,96941.66
2022-10-08T16:02:17.127Z,96955.59
2022-10-08T16:04:46.886Z,96946.91
2022-10-08T16:07:13.692Z,96954.50
2022-10-08T16:09:40.578Z,96960.03
2022-10-08T16:12:07.582Z,96954.06
2022-10-08T16:14:34.603Z,96961.66
2022-10-08T16:17:03.016Z,96959.44
2022-10-08T16:19:30.581Z,96973.75
2022-10-08T16:21:58.735Z,96966.00
2022-10-08T16:24:25.656Z,96966.88
2022-10-08T16:26:52.634Z,96976.09
2022-10-08T16:29:19.586Z,96981.25
2022-10-08T16:31:48.181Z,96992.31
2022-10-08T16:34:22.127Z,96987.59
2022-10-08T16:36:49.794Z,96986.84
2022-10-08T16:39:20.710Z,96997.72
2022-10-08T16:41:49.168Z,96996.78
2022-10-08T16:44:19.760Z,97011.50
2022-10-08T16:46:50.378Z,97010.50
2022-10-08T16:49:25.400Z,97017.13
2022-10-08T16:52:05.105Z,97018.38
2022-10-08T16:54:32.852Z,97024.34
2022-10-08T16:57:00.032Z,97031.97
2022-10-08T16:59:29.337Z,97034.41
2022-10-08T17:01:58.728Z,97027.91
2022-10-08T17:04:28.607Z,97035.69
2022-10-08T17:06:55.763Z,97038.59
2022-10-08T17:09:22.668Z,97039.44
2022-10-08T17:11:50.133Z,97043.91
2022-10-08T17:14:16.963Z,97048.63
2022-10-08T17:16:45.526Z,97056.44
2022-10-08T17:19:12.894Z,97048.47
2022-10-08T17:21:40.159Z,97050.31
2022-10-08T17:24:07.391Z,97063.38
2022-10-08T17:26:34.201Z,97057.91
2022-10-08T17:29:07.167Z,97063.22
2022-10-08T17:31:35.052Z,97068.72
2022-10-08T17:34:04.401Z,97075.84
2022-10-08T17:36:37.806Z,97072.81
2022-10-08T17:39:08.451Z,97076.91
2022-10-08T17:41:38.455Z,97076.69
2022-10-08T17:44:08.081Z,97075.47
2022-10-08T17:46:46.724Z,97081.97
2022-10-08T17:49:19.305Z,97082.78
2022-10-08T17:51:47.422Z,97090.53
2022-10-08T17:54:18.904Z,97093.16
2022-10-08T17:56:47.042Z,97105.16
2022-10-08T17:59:19.127Z,97105.94
2022-10-08T18:01:46.395Z,97102.25
2022-10-08T18:04:16.771Z,97105.06
2022-10-08T18:06:46.436Z,97113.59
2022-10-08T18:09:19.827Z,97127.16
2022-10-08T18:11:51.931Z,97130.19
2022-10-08T18:14:20.516Z,97128.13
2022-10-08T18:16:48.688Z,97134.19
2022-10-08T18:19:16.370Z,97135.38
2022-10-08T18:21:43.412Z,97131.03
2022-10-08T18:24:10.890Z,97128.94
2022-10-08T18:26:37.802Z,97131.06
2022-10-08T18:29:10.677Z,97132.81
2022-10-08T18:31:40.105Z,97149.63
2022-10-08T18:34:11.714Z,97144.34
2022-10-08T18:36:39.616Z,97141.91
2022-10-08T18:39:18.876Z,97153.03
2022-10-08T18:41:51.400Z,97152.59
2022-10-08T18:44:22.217Z,97154.81
2022-10-08T18:46:49.665Z,97161.09
2022-10-08T18:49:21.682Z,97164.47
2022-10-08T18:51:49.936Z,97166.41
2022-10-08T18:54:17.077Z,97159.91
2022-10-08T18:56:43.905Z,97171.63
2022-10-08T18:59:15.831Z,97173.66
2022-10-08T19:01:47.910Z,97175.78
2022-10-08T19:04:18.381Z,97188.53
2022-10-08T19:06:47.372Z,97190.91
2022-10-08T19:09:15.153Z,97180.28
2022-10-08T19:11:46.248Z,97195.84
2022-10-08T19:14:16.394Z,97200.50
2022-10-08T19:16:44.483Z,97199.22
2022-10-08T19:19:24.269Z,97195.09
2022-10-08T19:21:52.221Z,97205.16
2022-10-08T19:24:23.193Z,97207.13
2022-10-08T19:26:50.970Z,97211.09
2022-10-08T19:29:29.351Z,97222.03
2022-10-08T19:31:57.752Z,97219.19
2022-10-08T19:34:27.075Z,97220.53
2022-10-08T19:36:54.267Z,97222.53
2022-10-08T19:39:27.709Z,97236.25
2022-10-08T19:41:54.673Z,97234.16
2022-10-08T19:44:21.673Z,97238.97
2022-10-08T19:46:49.193Z,97239.88
2022-10-08T19:49:16.558Z,97242.84
2022-10-08T19:51:44.085Z,97244.06
2022-10-08T19:54:11.718Z,97256.13
2022-10-08T19:56:38.877Z,97259.66
2022-10-08T19:59:06.280Z,97265.63
2022-10-08T20:01:37.165Z,97275.69
2022-10-08T20:04:06.302Z,97277.22
2022-10-08T20:06:39.002Z,97267.88
2022-10-08T20:09:11.739Z,97271.84
2022-10-08T20:11:38.727Z,97282.38
2022-10-08T20:14:05.817Z,97281.09
2022-10-08T20:16:37.175Z,97282.38
2022-10-08T20:19:16.836Z,97286.34
2022-10-08T20:21:44.238Z,97299.84
2022-10-08T20:24:11.373Z,97303.84
2022-10-08T20:26:40.625Z,97299.22
2022-10-08T20:29:20.092Z,97307.50
2022-10-08T20:31:51.174Z,97305.53
2022-10-08T20:34:23.475Z,97308.22
2022-10-08T20:36:51.255Z,97310.66
2022-10-08T20:39:20.950Z,97318.38
2022-10-08T20:41:48.474Z,97307.88
2022-10-08T20:44:16.181Z,97327.41
2022-10-08T20:46:43.235Z,97320.59
2022-10-08T20:49:12.978Z,97327.50
2022-10-08T20:51:41.580Z,97318.63
2022-10-08T20:54:11.277Z,97323.25
2022-10-08T20:56:40.753Z,97327.50
2022-10-08T20:59:10.110Z,97328.22
2022-10-08T21:01:38.772Z,97321.66
2022-10-08T21:04:06.881Z,97325.34
2022-10-08T21:06:46.744Z,97319.28
2022-10-08T21:09:16.282Z,97325.38
2022-10-08T21:11:45.845Z,97325.25
2022-10-08T21:14:17.942Z,97320.47
2022-10-08T21:16:45.136Z,97322.09
2022-10-08T21:19:16.574Z,97324.09
2022-10-08T21:21:43.417Z,97328.03
2022-10-08T21:24:10.676Z,97334.13
2022-10-08T21:26:40.765Z,97338.75
2022-10-08T21:29:12.209Z,97335.66
2022-10-08T21:31:40.668Z,97336.81
2022-10-08T21:34:08.111Z,97337.97
2022-10-08T21:36:38.121Z,97337.03
2022-10-08T21:39:07.353Z,97340.91
2022-10-08T21:41:36.842Z,97345.09
2022-10-08T21:44:07.117Z,97347.53
2022-10-08T21:46:38.231Z,97343.63
2022-10-08T21:49:13.590Z,97349.09
2022-10-08T21:51:40.834Z,97346.94
2022-10-08T21:54:08.287Z,97348.59
2022-10-08T21:56:38.213Z,97346.63
2022-10-08T21:59:07.610Z,97349.09
2022-10-08T22:01:39.601Z,97355.78
2022-10-08T22:04:19.262Z,97355.13
2022-10-08T22:06:49.441Z,97352.94
2022-10-08T22:09:21.451Z,97342.53
2022-10-08T22:11:49.562Z,97346.78
2022-10-08T22:14:17.941Z,97349.34
2022-10-08T22:16:44.982Z,97344.69
2022-10-08T22:19:12.053Z,97347.63
2022-10-08T22:21:39.200Z,97353.16
2022-10-08T22:24:06.292Z,97354.28
2022-10-08T22:26:37.662Z,97342.94
2022-10-08T22:29:06.066Z,97349.13
2022-10-08T22:31:33.796Z,97344.88
2022-10-08T22:34:00.789Z,97340.25
2022-10-08T22:36:30.950Z,97335.00
2022-10-08T22:38:58.760Z,97337.34
2022-10-08T22:41:29.063Z,97340.13
2022-10-08T22:43:56.690Z,97340.66
2022-10-08T22:46:31.170Z,97339.88
2022-10-08T22:49:05.707Z,97342.81
2022-10-08T22:51:32.615Z,97336.69
2022-10-08T22:53:59.614Z,97346.91
2022-10-08T22:56:29.603Z,97343.47
2022-10-08T22:58:58.109Z,97342.88
2022-10-08T23:01:26.546Z,97344.22
2022-10-08T23:03:53.934Z,97345.69
2022-10-08T23:06:28.461Z,97353.13
2022-10-08T23:09:07.845Z,97348.06
2022-10-08T23:11:35.286Z,97358.88
2022-10-08T23:14:02.617Z,97347.09
2022-10-08T23:16:31.813Z,97345.44
2022-10-08T23:19:04.476Z,97345.91
2022-10-08T23:21:31.980Z,97348.72
2022-10-08T23:23:59.211Z,97346.59
2022-10-08T23:26:27.454Z,97344.31
2022-10-08T23:29:00.579Z,97354.00
2022-10-08T23:31:36.722Z,97349.91
2022-10-08T23:34:05.361Z,97347.28
2022-10-08T23:36:41.911Z,97354.97
2022-10-08T23:39:13.497Z,97354.16
2022-10-08T23:41:40.563Z,97345.97
2022-10-08T23:44:08.791Z,97354.34
2022-10-08T23:46:35.848Z,97352.19
2022-10-08T23:49:02.855Z,97353.00
2022-10-08T23:51:32.031Z,97353.00
2022-10-08T23:53:58.919Z,97352.53
2022-10-08T23:56:25.726Z,97358.75
2022-10-08T23:58:52.547Z,97355.66
